createdAt,value
2019-03-11T00:02:01.459Z,4.30
2019-03-11T00:04:31.456Z,4.40
2019-03-11T00:07:01.460Z,4.40
2019-03-11T00:09:37.395Z,4.50
2019-03-11T00:12:07.393Z,4.50
2019-03-11T00:14:37.538Z,4.50
2019-03-11T00:17:07.710Z,4.40
2019-03-11T00:19:41.061Z,4.40
2019-03-11T00:22:12.278Z,4.30
2019-03-11T00:24:42.764Z,4.10
2019-03-11T00:27:13.795Z,4.00
2019-03-11T00:29:43.643Z,3.90
2019-03-11T00:32:16.150Z,3.90
2019-03-11T00:34:48.275Z,3.80
2019-03-11T00:37:18.191Z,3.80
2019-03-11T00:39:50.405Z,3.80
2019-03-11T00:42:22.658Z,3.70
2019-03-11T00:44:52.606Z,3.70
2019-03-11T00:47:23.292Z,3.80
2019-03-11T00:49:55.313Z,3.70
2019-03-11T00:52:25.228Z,3.80
2019-03-11T00:54:55.119Z,3.80
2019-03-11T00:57:24.988Z,3.90
2019-03-11T00:59:56.770Z,4.00
2019-03-11T01:02:26.899Z,4.00
2019-03-11T01:04:56.619Z,4.20
2019-03-11T01:07:26.461Z,4.20
2019-03-11T01:09:56.609Z,4.40
2019-03-11T01:12:26.467Z,4.40
2019-03-11T01:14:56.338Z,4.50
2019-03-11T01:17:26.286Z,4.50
2019-03-11T01:19:56.089Z,4.60
2019-03-11T01:22:25.839Z,4.60
2019-03-11T01:24:55.767Z,4.60
2019-03-11T01:27:25.580Z,4.70
2019-03-11T01:29:55.604Z,4.70
2019-03-11T01:32:25.532Z,4.70
2019-03-11T01:34:55.606Z,4.70
2019-03-11T01:37:26.475Z,4.70
2019-03-11T01:39:56.384Z,4.70
2019-03-11T01:42:39.293Z,4.70
2019-03-11T01:45:12.450Z,4.70
2019-03-11T01:47:42.615Z,4.70
2019-03-11T01:50:13.132Z,4.70
2019-03-11T01:52:43.141Z,4.60
2019-03-11T01:55:14.166Z,4.60
2019-03-11T01:57:44.448Z,4.50
2019-03-11T02:00:19.558Z,4.50
2019-03-11T02:02:49.519Z,4.50
2019-03-11T02:05:19.479Z,4.50
2019-03-11T02:07:49.632Z,4.50
2019-03-11T02:10:19.751Z,4.50
2019-03-11T02:12:49.619Z,4.50
2019-03-11T02:15:19.487Z,4.50
2019-03-11T02:17:49.563Z,4.50
2019-03-11T02:20:19.491Z,4.50
2019-03-11T02:22:49.509Z,4.50
2019-03-11T02:25:19.322Z,4.50
2019-03-11T02:27:49.152Z,4.50
2019-03-11T02:30:19.113Z,4.50
2019-03-11T02:32:50.663Z,4.40
2019-03-11T02:35:28.317Z,4.40
2019-03-11T02:37:58.761Z,4.40
2019-03-11T02:40:28.732Z,4.30
2019-03-11T02:42:58.962Z,4.30
2019-03-11T02:45:28.873Z,4.30
2019-03-11T02:47:58.762Z,4.30
2019-03-11T02:50:28.774Z,4.30
2019-03-11T02:52:58.739Z,4.30
2019-03-11T02:55:28.893Z,4.20
2019-03-11T02:57:58.873Z,4.20
2019-03-11T03:00:28.988Z,4.20
2019-03-11T03:03:30.191Z,4.20
2019-03-11T03:06:07.170Z,4.20
2019-03-11T03:08:37.096Z,4.20
2019-03-11T03:11:07.171Z,4.20
2019-03-11T03:13:37.254Z,4.20
2019-03-11T03:16:07.201Z,4.30
2019-03-11T03:18:38.407Z,4.20
2019-03-11T03:21:08.369Z,4.20
2019-03-11T03:23:38.201Z,4.20
2019-03-11T03:26:08.140Z,4.20
2019-03-11T03:28:37.939Z,4.30
2019-03-11T03:31:07.896Z,4.30
2019-03-11T03:33:37.749Z,4.20
2019-03-11T03:36:07.737Z,4.10
2019-03-11T03:38:37.842Z,4.10
2019-03-11T03:41:08.582Z,4.00
2019-03-11T03:43:38.550Z,4.00
2019-03-11T03:46:18.410Z,4.00
2019-03-11T03:48:40.136Z,3.90
2019-03-11T03:51:10.311Z,3.90
2019-03-11T03:53:41.094Z,3.80
2019-03-11T03:56:11.583Z,3.70
2019-03-11T03:58:41.331Z,3.60
2019-03-11T04:01:11.730Z,3.60
2019-03-11T04:03:41.756Z,3.60
2019-03-11T04:06:11.564Z,3.60
2019-03-11T04:08:41.378Z,3.50
2019-03-11T04:11:11.331Z,3.60
2019-03-11T04:13:41.141Z,3.60
2019-03-11T04:16:11.001Z,3.60
2019-03-11T04:18:59.512Z,3.60
2019-03-11T04:21:29.845Z,3.60
2019-03-11T04:23:59.859Z,3.60
2019-03-11T04:26:30.736Z,3.50
2019-03-11T04:29:00.617Z,3.50
2019-03-11T04:31:30.522Z,3.50
2019-03-11T04:34:00.475Z,3.60
2019-03-11T04:36:30.443Z,3.70
2019-03-11T04:39:00.373Z,3.80
2019-03-11T04:41:30.462Z,3.80
2019-03-11T04:44:00.421Z,3.90
2019-03-11T04:46:30.340Z,3.90
2019-03-11T04:49:00.760Z,4.00
2019-03-11T04:51:30.697Z,3.90
2019-03-11T04:54:00.536Z,3.90
2019-03-11T04:56:30.395Z,3.90
2019-03-11T04:59:10.824Z,3.90
2019-03-11T05:01:40.769Z,3.90
2019-03-11T05:04:10.805Z,3.90
2019-03-11T05:06:40.699Z,4.00
2019-03-11T05:09:10.629Z,4.00
2019-03-11T05:11:40.470Z,4.00
2019-03-11T05:14:10.420Z,3.90
2019-03-11T05:16:40.328Z,3.90
2019-03-11T05:19:10.575Z,3.90
2019-03-11T05:21:40.401Z,3.90
2019-03-11T05:24:10.433Z,3.90
2019-03-11T05:26:40.242Z,3.90
2019-03-11T05:29:10.039Z,3.90
2019-03-11T05:31:40.785Z,3.90
2019-03-11T05:34:10.727Z,3.90
2019-03-11T05:36:40.663Z,3.80
2019-03-11T05:39:10.762Z,3.70
2019-03-11T05:41:40.612Z,3.70
2019-03-11T05:44:10.499Z,3.70
2019-03-11T05:46:40.581Z,3.60
2019-03-11T05:49:10.600Z,3.60
2019-03-11T05:51:40.413Z,3.60
2019-03-11T05:54:10.616Z,3.60
2019-03-11T05:56:40.552Z,3.60
2019-03-11T05:59:10.965Z,3.60
2019-03-11T06:01:41.064Z,4.30
2019-03-11T06:04:11.187Z,3.60
2019-03-11T06:06:41.328Z,3.60
2019-03-11T06:09:12.263Z,3.70
2019-03-11T06:11:42.565Z,3.80
2019-03-11T06:14:12.937Z,3.80
2019-03-11T06:16:43.035Z,3.90
2019-03-11T06:19:12.952Z,3.90
2019-03-11T06:21:48.965Z,3.80
2019-03-11T06:24:18.876Z,3.70
2019-03-11T06:26:48.828Z,3.70
2019-03-11T06:29:29.770Z,3.70
2019-03-11T06:31:50.799Z,3.60
2019-03-11T06:34:20.754Z,3.60
2019-03-11T06:36:50.791Z,3.50
2019-03-11T06:39:20.657Z,3.50
2019-03-11T06:41:50.590Z,3.30
2019-03-11T06:44:20.332Z,3.20
2019-03-11T06:46:50.303Z,3.10
2019-03-11T06:49:20.364Z,3.10
2019-03-11T06:51:51.052Z,3.10
2019-03-11T06:54:20.873Z,3.00
2019-03-11T06:56:50.864Z,2.90
2019-03-11T06:59:21.202Z,2.90
2019-03-11T07:01:51.102Z,2.90
2019-03-11T07:04:21.475Z,3.00
2019-03-11T07:06:51.446Z,3.10
2019-03-11T07:09:21.488Z,3.20
2019-03-11T07:11:51.536Z,3.30
2019-03-11T07:14:21.358Z,3.30
2019-03-11T07:16:51.391Z,3.30
2019-03-11T07:19:21.263Z,3.30
2019-03-11T07:21:51.047Z,3.30
2019-03-11T07:24:20.913Z,3.50
2019-03-11T07:26:51.078Z,3.70
2019-03-11T07:29:20.935Z,3.90
2019-03-11T07:31:50.902Z,4.10
2019-03-11T07:34:20.809Z,4.10
2019-03-11T07:36:50.811Z,3.90
2019-03-11T07:39:21.610Z,3.80
2019-03-11T07:41:51.515Z,3.70
2019-03-11T07:44:21.545Z,3.80
2019-03-11T07:46:51.412Z,3.70
2019-03-11T07:49:21.323Z,3.60
2019-03-11T07:51:51.608Z,3.50
2019-03-11T07:54:21.599Z,3.40
2019-03-11T07:56:52.362Z,3.30
2019-03-11T07:59:22.198Z,3.30
2019-03-11T08:01:53.005Z,3.40
2019-03-11T08:04:28.989Z,3.30
2019-03-11T08:06:59.791Z,3.30
2019-03-11T08:09:37.764Z,3.30
2019-03-11T08:12:01.493Z,3.20
2019-03-11T08:14:31.649Z,3.30
2019-03-11T08:17:01.796Z,3.40
2019-03-11T08:19:31.740Z,3.40
2019-03-11T08:22:01.615Z,3.50
2019-03-11T08:24:31.882Z,3.60
2019-03-11T08:27:02.059Z,3.60
2019-03-11T08:29:31.917Z,3.70
2019-03-11T08:32:02.472Z,3.80
2019-03-11T08:34:32.582Z,3.80
2019-03-11T08:37:02.362Z,3.80
2019-03-11T08:39:32.762Z,3.80
2019-03-11T08:42:02.795Z,3.70
2019-03-11T08:44:33.581Z,3.70
2019-03-11T08:47:04.266Z,3.80
2019-03-11T08:49:34.531Z,3.80
2019-03-11T08:52:05.513Z,3.80
2019-03-11T08:54:35.847Z,3.80
2019-03-11T08:57:06.086Z,3.80
2019-03-11T08:59:36.353Z,2.80
2019-03-11T09:02:06.380Z,3.90
2019-03-11T09:04:47.504Z,4.00
2019-03-11T09:07:18.029Z,4.10
2019-03-11T09:09:48.147Z,4.20
2019-03-11T09:12:19.159Z,4.10
2019-03-11T09:14:58.810Z,4.10
2019-03-11T09:17:29.177Z,4.00
2019-03-11T09:20:00.652Z,3.90
2019-03-11T09:22:31.743Z,4.00
2019-03-11T09:25:02.271Z,4.00
2019-03-11T09:27:36.325Z,4.00
2019-03-11T09:30:08.161Z,4.10
2019-03-11T09:32:46.035Z,4.20
2019-03-11T09:35:17.010Z,4.40
2019-03-11T09:37:47.442Z,4.50
2019-03-11T09:40:17.491Z,4.60
2019-03-11T09:42:47.618Z,4.60
2019-03-11T09:45:18.497Z,4.90
2019-03-11T09:47:48.758Z,5.10
2019-03-11T09:50:19.514Z,5.10
2019-03-11T09:53:05.521Z,5.10
2019-03-11T09:55:35.548Z,4.90
2019-03-11T09:58:05.522Z,4.80
2019-03-11T10:00:35.611Z,4.90
2019-03-11T10:03:06.671Z,4.90
2019-03-11T10:05:37.849Z,5.00
2019-03-11T10:08:10.738Z,4.90
2019-03-11T10:10:40.981Z,5.00
2019-03-11T10:13:11.126Z,4.90
2019-03-11T10:15:41.082Z,4.90
2019-03-11T10:18:11.462Z,4.90
2019-03-11T10:20:41.653Z,5.10
2019-03-11T10:23:11.977Z,5.40
2019-03-11T10:25:42.241Z,5.60
2019-03-11T10:28:13.066Z,5.80
2019-03-11T10:30:43.278Z,6.20
2019-03-11T10:33:16.306Z,6.60
2019-03-11T10:35:46.580Z,6.60
2019-03-11T10:38:30.712Z,6.50
2019-03-11T10:41:00.916Z,6.20
2019-03-11T10:43:32.473Z,6.10
2019-03-11T10:46:02.417Z,6.10
2019-03-11T10:48:37.125Z,6.60
2019-03-11T10:51:04.540Z,7.10
2019-03-11T10:53:35.012Z,7.80
2019-03-11T10:56:07.280Z,7.60
2019-03-11T10:58:37.528Z,7.40
2019-03-11T11:01:09.613Z,7.50
2019-03-11T11:03:39.685Z,7.40
2019-03-11T11:06:11.816Z,7.00
2019-03-11T11:08:41.768Z,6.30
2019-03-11T11:11:11.755Z,5.60
2019-03-11T11:13:41.627Z,5.10
2019-03-11T11:16:11.811Z,5.40
2019-03-11T11:18:42.062Z,5.50
2019-03-11T11:21:13.044Z,5.50
2019-03-11T11:23:43.073Z,5.20
2019-03-11T11:26:12.888Z,5.30
2019-03-11T11:28:42.839Z,5.40
2019-03-11T11:31:13.315Z,5.80
2019-03-11T11:33:43.890Z,6.30
2019-03-11T11:36:14.471Z,6.50
2019-03-11T11:38:44.378Z,6.80
2019-03-11T11:41:16.491Z,6.90
2019-03-11T11:43:47.155Z,6.90
2019-03-11T11:46:18.355Z,7.00
2019-03-11T11:48:48.490Z,7.40
2019-03-11T11:51:18.657Z,7.60
2019-03-11T11:53:49.051Z,7.60
2019-03-11T11:56:19.070Z,7.00
2019-03-11T11:58:49.050Z,6.30
2019-03-11T12:01:19.237Z,6.00
2019-03-11T12:03:49.679Z,6.00
2019-03-11T12:06:20.564Z,5.90
2019-03-11T12:08:50.591Z,5.90
2019-03-11T12:11:20.802Z,5.80
2019-03-11T12:13:51.344Z,5.90
2019-03-11T12:16:21.769Z,6.10
2019-03-11T12:18:52.356Z,6.30
2019-03-11T12:21:23.568Z,6.40
2019-03-11T12:23:53.663Z,6.90
2019-03-11T12:26:25.578Z,7.10
2019-03-11T12:28:55.695Z,7.10
2019-03-11T12:31:26.117Z,7.30
2019-03-11T12:33:56.103Z,7.30
2019-03-11T12:36:26.069Z,7.10
2019-03-11T12:38:56.384Z,6.60
2019-03-11T12:41:26.617Z,6.10
2019-03-11T12:43:57.104Z,5.90
2019-03-11T12:46:26.983Z,6.10
2019-03-11T12:48:56.886Z,6.40
2019-03-11T12:51:27.740Z,6.70
2019-03-11T12:53:57.857Z,6.90
2019-03-11T12:56:28.033Z,7.00
2019-03-11T12:58:57.918Z,7.10
2019-03-11T13:01:28.114Z,7.20
2019-03-11T13:03:58.318Z,7.10
2019-03-11T13:06:28.243Z,6.90
2019-03-11T13:08:58.388Z,7.20
2019-03-11T13:11:30.099Z,6.60
2019-03-11T13:14:00.778Z,7.50
2019-03-11T13:16:30.926Z,7.50
2019-03-11T13:19:12.725Z,7.60
2019-03-11T13:21:37.496Z,7.50
2019-03-11T13:24:08.061Z,7.80
2019-03-11T13:26:38.194Z,8.10
2019-03-11T13:29:08.254Z,8.20
2019-03-11T13:31:39.238Z,8.10
2019-03-11T13:34:09.372Z,8.10
2019-03-11T13:36:40.533Z,8.00
2019-03-11T13:39:11.396Z,8.00
2019-03-11T13:41:41.221Z,7.80
2019-03-11T13:44:18.379Z,7.60
2019-03-11T13:46:48.305Z,7.40
2019-03-11T13:49:18.195Z,7.40
2019-03-11T13:51:48.243Z,7.50
2019-03-11T13:54:18.330Z,7.60
2019-03-11T13:56:48.354Z,7.60
2019-03-11T13:59:18.608Z,7.90
2019-03-11T14:01:50.563Z,8.10
2019-03-11T14:04:20.964Z,7.90
2019-03-11T14:06:52.012Z,7.70
2019-03-11T14:09:22.041Z,7.40
2019-03-11T14:11:52.447Z,7.20
2019-03-11T14:14:23.796Z,7.10
2019-03-11T14:16:54.215Z,7.10
2019-03-11T14:19:24.085Z,7.20
2019-03-11T14:21:55.589Z,7.40
2019-03-11T14:24:31.706Z,7.50
2019-03-11T14:27:04.094Z,7.60
2019-03-11T14:29:34.962Z,7.40
2019-03-11T14:32:06.156Z,7.30
2019-03-11T14:34:36.417Z,7.90
2019-03-11T14:37:07.102Z,7.40
2019-03-11T14:39:38.586Z,7.40
2019-03-11T14:42:11.376Z,7.20
2019-03-11T14:44:45.721Z,7.20
2019-03-11T14:47:15.624Z,7.30
2019-03-11T14:49:47.074Z,7.40
2019-03-11T14:52:21.215Z,7.70
2019-03-11T14:54:55.463Z,7.70
2019-03-11T14:57:26.598Z,7.50
2019-03-11T14:59:57.489Z,7.40
2019-03-11T15:02:27.899Z,7.20
2019-03-11T15:04:58.197Z,7.00
2019-03-11T15:07:29.638Z,6.90
2019-03-11T15:10:00.946Z,6.80
2019-03-11T15:12:31.128Z,6.90
2019-03-11T15:15:01.788Z,7.10
2019-03-11T15:17:32.009Z,7.40
2019-03-11T15:20:19.251Z,7.60
2019-03-11T15:22:50.063Z,7.70
2019-03-11T15:25:20.865Z,7.80
2019-03-11T15:27:56.113Z,7.80
2019-03-11T15:30:27.906Z,7.70
2019-03-11T15:32:58.415Z,7.50
2019-03-11T15:35:28.943Z,7.30
2019-03-11T15:37:59.262Z,7.20
2019-03-11T15:40:29.321Z,7.10
2019-03-11T15:42:59.341Z,7.00
2019-03-11T15:45:38.710Z,7.00
2019-03-11T15:48:04.212Z,7.00
2019-03-11T15:50:42.986Z,6.90
2019-03-11T15:53:17.702Z,6.90
2019-03-11T15:55:48.876Z,6.80
2019-03-11T15:58:18.870Z,6.60
2019-03-11T16:00:50.308Z,6.50
2019-03-11T16:03:20.966Z,6.40
2019-03-11T16:05:53.146Z,6.10
2019-03-11T16:08:24.361Z,5.90
2019-03-11T16:10:54.470Z,5.80
2019-03-11T16:13:25.843Z,5.70
2019-03-11T16:15:56.340Z,5.60
2019-03-11T16:18:37.672Z,5.60
2019-03-11T16:21:07.985Z,5.70
2019-03-11T16:23:38.520Z,5.60
2019-03-11T16:26:08.677Z,5.50
2019-03-11T16:28:52.845Z,5.40
2019-03-11T16:31:29.010Z,5.30
2019-03-11T16:34:06.201Z,5.30
2019-03-11T16:36:38.755Z,5.20
2019-03-11T16:39:14.490Z,5.20
2019-03-11T16:41:45.574Z,5.10
2019-03-11T16:44:21.181Z,5.10
2019-03-11T16:47:02.943Z,5.00
2019-03-11T16:49:50.503Z,5.00
2019-03-11T16:52:36.048Z,5.10
2019-03-11T16:55:22.260Z,5.00
2019-03-11T16:58:04.781Z,5.00
2019-03-11T17:00:41.810Z,5.00
2019-03-11T17:04:00.891Z,5.00
2019-03-11T17:06:39.253Z,5.00
2019-03-11T17:09:11.171Z,5.00
2019-03-11T17:11:44.351Z,5.00
2019-03-11T17:14:14.532Z,5.00
2019-03-11T17:16:44.739Z,5.00
2019-03-11T17:19:14.676Z,5.10
2019-03-11T17:21:50.446Z,5.10
2019-03-11T17:24:32.519Z,5.00
2019-03-11T17:27:10.156Z,5.10
2019-03-11T17:29:53.109Z,5.00
2019-03-11T17:32:23.057Z,5.10
2019-03-11T17:34:53.884Z,5.10
2019-03-11T17:40:38.565Z,5.10
2019-03-11T17:43:12.330Z,5.10
2019-03-11T17:45:45.330Z,5.10
2019-03-11T17:48:18.633Z,5.20
2019-03-11T17:50:49.124Z,5.20
2019-03-11T17:53:21.285Z,5.20
2019-03-11T17:55:55.308Z,5.20
2019-03-11T17:58:25.369Z,5.20
2019-03-11T18:00:56.073Z,5.20
2019-03-11T18:03:26.294Z,5.20
2019-03-11T18:05:57.253Z,5.30
2019-03-11T18:08:32.053Z,5.30
2019-03-11T18:11:02.431Z,5.40
2019-03-11T18:13:33.131Z,5.30
2019-03-11T18:16:05.753Z,5.30
2019-03-11T18:18:35.843Z,5.20
2019-03-11T18:21:10.408Z,5.20
2019-03-11T18:23:41.665Z,5.30
2019-03-11T18:26:15.053Z,5.30
2019-03-11T18:28:46.998Z,5.30
2019-03-11T18:31:16.934Z,5.20
2019-03-11T18:33:49.010Z,5.20
2019-03-11T18:36:19.635Z,5.20
2019-03-11T18:38:50.801Z,5.30
2019-03-11T18:41:22.029Z,5.30
2019-03-11T18:43:52.079Z,5.30
2019-03-11T18:46:23.184Z,5.30
2019-03-11T18:48:53.077Z,5.30
2019-03-11T18:51:23.414Z,5.30
2019-03-11T18:53:53.611Z,5.40
2019-03-11T18:56:24.580Z,5.40
2019-03-11T18:58:54.607Z,5.30
2019-03-11T19:01:24.808Z,5.30
2019-03-11T19:03:54.750Z,5.40
2019-03-11T19:06:24.910Z,5.40
2019-03-11T19:08:55.876Z,5.40
2019-03-11T19:11:28.903Z,5.40
2019-03-11T19:13:59.399Z,5.40
2019-03-11T19:16:29.678Z,5.40
2019-03-11T19:19:01.386Z,5.30
2019-03-11T19:21:32.362Z,5.30
2019-03-11T19:24:02.510Z,5.40
2019-03-11T19:26:32.570Z,5.30
2019-03-11T19:29:02.782Z,5.30
2019-03-11T19:31:34.194Z,5.20
2019-03-11T19:34:25.853Z,5.20
2019-03-11T19:36:57.137Z,5.20
2019-03-11T19:39:27.393Z,5.30
2019-03-11T19:41:58.351Z,5.30
2019-03-11T19:44:28.920Z,5.30
2019-03-11T19:46:59.056Z,5.30
2019-03-11T19:49:29.232Z,5.20
2019-03-11T19:52:01.711Z,5.20
2019-03-11T19:54:31.666Z,5.20
2019-03-11T19:57:02.004Z,5.20
2019-03-11T19:59:34.329Z,5.20
2019-03-11T20:02:04.684Z,5.20
2019-03-11T20:04:34.763Z,5.30
2019-03-11T20:07:04.932Z,5.30
2019-03-11T20:09:34.981Z,5.30
2019-03-11T20:12:05.267Z,5.30
2019-03-11T20:14:36.345Z,5.30
2019-03-11T20:17:06.423Z,5.30
2019-03-11T20:19:36.739Z,5.30
2019-03-11T20:22:06.985Z,5.30
2019-03-11T20:24:38.041Z,5.40
2019-03-11T20:27:10.250Z,5.50
2019-03-11T20:29:40.400Z,5.40
2019-03-11T20:32:10.528Z,5.40
2019-03-11T20:34:41.945Z,5.50
2019-03-11T20:37:11.946Z,5.40
2019-03-11T20:39:42.882Z,5.40
2019-03-11T20:42:12.939Z,5.40
2019-03-11T20:44:44.098Z,5.50
2019-03-11T20:47:15.375Z,5.40
2019-03-11T20:49:46.911Z,5.50
2019-03-11T20:52:18.554Z,5.50
2019-03-11T20:54:49.749Z,5.50
2019-03-11T20:57:19.849Z,5.40
2019-03-11T20:59:50.197Z,5.50
2019-03-11T21:02:20.392Z,5.40
2019-03-11T21:04:50.608Z,5.40
2019-03-11T21:07:21.904Z,5.50
2019-03-11T21:09:52.085Z,5.50
2019-03-11T21:12:22.910Z,5.50
2019-03-11T21:14:54.207Z,5.50
2019-03-11T21:17:29.237Z,5.50
2019-03-11T21:19:56.820Z,5.60
2019-03-11T21:22:27.235Z,5.50
2019-03-11T21:24:59.861Z,5.50
2019-03-11T21:27:49.076Z,5.50
2019-03-11T21:30:29.418Z,5.50
2019-03-11T21:33:09.881Z,5.50
2019-03-11T21:35:40.260Z,5.50
2019-03-11T21:38:11.003Z,5.40
2019-03-11T21:40:41.786Z,5.40
2019-03-11T21:43:11.699Z,5.40
2019-03-11T21:45:42.058Z,5.40
2019-03-11T21:48:13.455Z,5.40
2019-03-11T21:50:44.156Z,5.40
2019-03-11T21:53:14.435Z,5.40
2019-03-11T21:55:44.874Z,5.40
2019-03-11T21:58:19.020Z,5.40
2019-03-11T22:00:49.114Z,5.40
2019-03-11T22:03:19.935Z,5.40
2019-03-11T22:05:53.042Z,5.40
2019-03-11T22:08:28.785Z,5.30
2019-03-11T22:11:02.579Z,5.40
2019-03-11T22:13:33.105Z,5.40
2019-03-11T22:16:06.596Z,5.40
2019-03-11T22:18:36.710Z,5.40
2019-03-11T22:21:07.149Z,5.40
2019-03-11T22:23:37.458Z,5.40
2019-03-11T22:26:07.680Z,5.40
2019-03-11T22:28:37.961Z,5.30
2019-03-11T22:31:12.442Z,5.30
2019-03-11T22:33:48.316Z,5.20
2019-03-11T22:36:18.733Z,5.20
2019-03-11T22:38:52.361Z,5.10
2019-03-11T22:41:32.676Z,5.10
2019-03-11T22:44:03.963Z,5.10
2019-03-11T22:46:58.230Z,5.00
2019-03-11T22:49:34.610Z,5.10
2019-03-11T22:52:18.857Z,5.10
2019-03-11T22:54:51.424Z,5.00
2019-03-11T22:57:25.025Z,5.00
2019-03-11T22:59:55.615Z,5.00
2019-03-11T23:02:26.448Z,5.00
2019-03-11T23:04:57.362Z,5.10
2019-03-11T23:07:27.494Z,5.10
2019-03-11T23:10:05.079Z,5.10
2019-03-11T23:12:36.179Z,5.10
2019-03-11T23:15:06.919Z,6.10
2019-03-11T23:17:36.994Z,5.10
2019-03-11T23:20:08.998Z,5.00
2019-03-11T23:22:41.439Z,5.00
2019-03-11T23:25:12.847Z,5.10
2019-03-11T23:27:54.596Z,5.10
2019-03-11T23:30:26.470Z,5.20
2019-03-11T23:32:57.982Z,5.10
2019-03-11T23:35:28.220Z,5.10
2019-03-11T23:37:58.422Z,5.00
2019-03-11T23:40:28.851Z,4.90
2019-03-11T23:42:59.936Z,4.80
2019-03-11T23:45:30.081Z,4.80
2019-03-11T23:48:00.052Z,4.80
2019-03-11T23:50:30.768Z,4.80
2019-03-11T23:53:00.589Z,4.90
2019-03-11T23:55:30.897Z,4.80
2019-03-11T23:58:01.334Z,4.80
